Deadwood, Oregon
Current Conditions -  °F | °C
As of 2:01 AM on Monday 22 Dec 2014 (Local Time) from KEUG Reporting Station
Haze Haze  
Wind Chill: 51°   Ceiling: 400
Heat Index: 51°   Visibility: 3mi
Dew Point: 50°   Wind: 3mph
Humidity: 96%   Direction: 60°ENE
Pressure: 30.24"   Gusts: NA
Location:  44.1°N, 123.76°W
Report Text: KEUG 221001Z AUTO 06003KT 3SM BR BKN004 OVC019 11/10 A3024 RMK AO2 VIS 1 3/4 RNW 34 RAE00 P0000 T01060100 $
Loading
Personal Weather Stations






























Interactive Weather Map New forecast layout! Learn more

10-Day Weather Forecast

Advertisements
Track Severe Weather on mobile